Time;durP1;ratioP1;P1;durP2;ratioP2;P2;SDS_P1;SDS_P2;PMS_P1;PMS_P2;Temp;Humidity;BMP_temperature;BMP_pressure;BME280_temperature;BME280_humidity;BME280_pressure;Samples;Min_cycle;Max_cycle;Signal;HPM_P1;HPM_P2
2022/05/24 00:01:27;;;;;;;17.55;8.77;;;;;;;;;;4971988;28;20057;-77
2022/05/24 00:03:52;;;;;;;26.10;8.88;;;;;;;;;;4988214;28;21864;-75
2022/05/24 00:06:18;;;;;;;19.73;8.27;;;;;;;;;;4953598;28;20146;-76
2022/05/24 00:08:44;;;;;;;18.33;8.77;;;;;;;;;;4969927;28;20105;-77
2022/05/24 00:11:10;;;;;;;18.35;10.65;;;;;;;;;;4969898;28;20880;-76
2022/05/24 00:13:36;;;;;;;22.80;11.30;;;;;;;;;;4972311;28;20125;-76
2022/05/24 00:16:01;;;;;;;23.13;11.57;;;;;;;;;;4972003;28;20995;-76
2022/05/24 00:18:28;;;;;;;21.48;12.38;;;;;;;;;;4956786;28;20041;-75
2022/05/24 00:20:55;;;;;;;19.38;11.13;;;;;;;;;;4983721;28;20830;-77
2022/05/24 00:23:22;;;;;;;19.45;11.07;;;;;;;;;;4972054;28;20977;-76
2022/05/24 00:25:49;;;;;;;17.92;10.63;;;;;;;;;;4969814;28;21229;-74
2022/05/24 00:28:17;;;;;;;20.35;10.88;;;;;;;;;;4981117;28;20041;-77
2022/05/24 00:30:47;;;;;;;17.08;9.65;;;;;;;;;;4960347;28;20041;-76
2022/05/24 00:33:13;;;;;;;11.52;7.95;;;;;;;;;;4975755;28;20056;-76
2022/05/24 00:35:39;;;;;;;16.13;8.43;;;;;;;;;;4974312;28;20034;-77
2022/05/24 00:38:07;;;;;;;14.52;7.93;;;;;;;;;;4979783;28;21129;-76
2022/05/24 00:40:39;;;;;;;17.98;9.23;;;;;;;;;;4978308;28;20057;-76
2022/05/24 00:43:08;;;;;;;17.95;8.52;;;;;;;;;;4975665;28;20048;-76
2022/05/24 00:45:39;;;;;;;15.43;8.65;;;;;;;;;;4974313;28;20041;-74
2022/05/24 00:48:08;;;;;;;15.85;8.75;;;;;;;;;;4972632;28;20600;-76
2022/05/24 00:50:39;;;;;;;12.93;7.88;;;;;;;;;;4975469;28;20030;-77
2022/05/24 00:53:04;;;;;;;17.10;8.60;;;;;;;;;;4964790;28;20046;-77
2022/05/24 00:55:32;;;;;;;17.60;8.55;;;;;;;;;;4973371;28;21072;-76
2022/05/24 00:57:58;;;;;;;15.80;8.23;;;;;;;;;;4970510;28;20088;-76
2022/05/24 01:00:27;;;;;;;16.55;8.70;;;;;;;;;;4973296;28;20041;-77
2022/05/24 01:02:57;;;;;;;14.98;8.27;;;;;;;;;;4971409;28;20552;-77
2022/05/24 01:05:27;;;;;;;17.23;8.27;;;;;;;;;;4971490;28;20037;-77
2022/05/24 01:07:53;;;;;;;14.35;8.05;;;;;;;;;;4966700;28;20878;-76
2022/05/24 01:10:27;;;;;;;23.02;10.02;;;;;;;;;;4997465;28;20169;-76
2022/05/24 01:12:55;;;;;;;16.90;8.98;;;;;;;;;;4989485;28;20095;-78
2022/05/24 01:15:21;;;;;;;19.15;8.88;;;;;;;;;;4994532;28;20038;-78
2022/05/24 01:17:47;;;;;;;20.80;9.02;;;;;;;;;;4991452;28;21167;-76
2022/05/24 01:20:13;;;;;;;19.77;9.10;;;;;;;;;;4973445;28;20044;-77
2022/05/24 01:22:58;;;;;;;20.10;7.72;;;;;;;;;;4970495;28;20061;-75
2022/05/24 01:25:27;;;;;;;18.50;9.13;;;;;;;;;;4973135;28;20494;-75
2022/05/24 01:27:53;;;;;;;28.70;10.55;;;;;;;;;;4972801;28;20129;-75
2022/05/24 01:30:21;;;;;;;23.65;9.50;;;;;;;;;;4978076;28;20557;-77
2022/05/24 01:38:20;;;;;;;18.80;7.72;;;;;;;;;;4973307;28;20025;-78
2022/05/24 01:40:47;;;;;;;17.48;8.45;;;;;;;;;;4970885;28;20034;-77
2022/05/24 01:43:14;;;;;;;19.70;8.20;;;;;;;;;;4971241;28;20068;-77
2022/05/24 01:45:50;;;;;;;26.58;8.93;;;;;;;;;;4973062;28;20042;-74
2022/05/24 01:48:17;;;;;;;27.27;9.57;;;;;;;;;;4992722;28;20034;-72
2022/05/24 01:50:43;;;;;;;29.58;9.57;;;;;;;;;;4989938;28;20176;-73
2022/05/24 01:53:12;;;;;;;28.25;10.20;;;;;;;;;;4990653;28;20548;-73
2022/05/24 01:55:42;;;;;;;27.80;8.20;;;;;;;;;;4984842;28;20037;-73
2022/05/24 01:58:10;;;;;;;32.22;8.05;;;;;;;;;;4991177;28;20064;-73
2022/05/24 02:00:36;;;;;;;29.13;7.95;;;;;;;;;;4992258;28;20834;-72
2022/05/24 02:03:01;;;;;;;35.35;7.80;;;;;;;;;;5005183;28;20080;-72
2022/05/24 02:05:34;;;;;;;25.50;7.00;;;;;;;;;;4991690;28;20025;-72
2022/05/24 02:07:59;;;;;;;32.70;7.13;;;;;;;;;;4985822;28;20030;-72
2022/05/24 02:10:25;;;;;;;30.75;6.43;;;;;;;;;;4966647;28;20091;-72
2022/05/24 02:12:53;;;;;;;34.38;7.40;;;;;;;;;;4973573;28;20126;-73
2022/05/24 02:15:22;;;;;;;33.60;6.75;;;;;;;;;;4967332;28;20058;-72
2022/05/24 02:17:59;;;;;;;31.60;6.80;;;;;;;;;;4973250;28;20932;-73
2022/05/24 02:20:29;;;;;;;31.15;6.60;;;;;;;;;;4974621;28;20029;-71
2022/05/24 02:22:55;;;;;;;29.55;7.30;;;;;;;;;;4973215;28;20737;-69
2022/05/24 02:25:32;;;;;;;24.35;5.72;;;;;;;;;;4973309;28;20032;-72
2022/05/24 02:27:58;;;;;;;23.55;6.10;;;;;;;;;;4981744;28;20931;-72
2022/05/24 02:30:25;;;;;;;27.15;6.75;;;;;;;;;;4969107;28;20045;-72
2022/05/24 02:32:53;;;;;;;29.70;7.10;;;;;;;;;;4971334;28;20026;-73
2022/05/24 02:35:21;;;;;;;24.80;6.15;;;;;;;;;;4984630;28;20041;-73
2022/05/24 02:37:46;;;;;;;32.92;6.63;;;;;;;;;;4969131;28;20033;-73
2022/05/24 02:42:56;;;;;;;36.53;7.53;;;;;;;;;;4981161;28;20030;-72
2022/05/24 02:45:21;;;;;;;29.92;7.20;;;;;;;;;;4971549;28;20045;-72
2022/05/24 02:47:47;;;;;;;30.23;6.60;;;;;;;;;;4980936;28;20113;-72
2022/05/24 02:50:13;;;;;;;39.00;7.72;;;;;;;;;;4992671;28;20053;-72
2022/05/24 02:52:39;;;;;;;38.95;7.40;;;;;;;;;;5005991;28;20958;-73
2022/05/24 02:55:05;;;;;;;34.25;7.20;;;;;;;;;;4992148;28;20068;-73
2022/05/24 02:57:31;;;;;;;36.25;6.93;;;;;;;;;;4990908;28;20737;-73
2022/05/24 02:59:56;;;;;;;30.00;6.55;;;;;;;;;;4992615;28;20128;-74
2022/05/24 03:02:22;;;;;;;32.70;6.40;;;;;;;;;;4992245;28;20029;-74
2022/05/24 03:04:47;;;;;;;27.88;5.78;;;;;;;;;;5006651;28;20030;-74
2022/05/24 03:09:56;;;;;;;30.25;6.38;;;;;;;;;;4973951;28;20030;-72
2022/05/24 03:15:06;;;;;;;23.42;4.68;;;;;;;;;;4962388;28;20065;-71
2022/05/24 03:17:31;;;;;;;18.30;4.25;;;;;;;;;;4971851;28;20733;-70
2022/05/24 03:19:57;;;;;;;23.63;4.68;;;;;;;;;;4970423;28;20119;-72
2022/05/24 03:22:23;;;;;;;14.65;4.03;;;;;;;;;;4972416;28;20058;-70
2022/05/24 03:24:48;;;;;;;17.98;3.80;;;;;;;;;;4976410;28;20823;-71
2022/05/24 03:27:14;;;;;;;16.00;4.07;;;;;;;;;;4970234;28;20990;-70
2022/05/24 03:29:44;;;;;;;17.35;4.18;;;;;;;;;;4970472;28;20045;-72
2022/05/24 03:32:11;;;;;;;18.02;3.50;;;;;;;;;;4982491;28;20038;-72
2022/05/24 03:34:38;;;;;;;12.38;3.75;;;;;;;;;;4972427;28;20045;-70
2022/05/24 03:37:03;;;;;;;15.85;3.60;;;;;;;;;;4973603;28;20057;-71
2022/05/24 03:39:28;;;;;;;15.90;4.25;;;;;;;;;;4970918;28;20040;-69
2022/05/24 03:41:54;;;;;;;17.60;4.07;;;;;;;;;;4970292;28;20975;-69
2022/05/24 03:44:20;;;;;;;15.40;3.60;;;;;;;;;;4992100;28;20635;-71
2022/05/24 03:46:45;;;;;;;15.20;3.53;;;;;;;;;;4983381;28;20136;-70
2022/05/24 03:49:11;;;;;;;13.93;4.10;;;;;;;;;;5004638;28;20869;-69
2022/05/24 03:51:36;;;;;;;14.80;4.60;;;;;;;;;;4989647;28;20107;-71
2022/05/24 03:54:06;;;;;;;12.85;5.13;;;;;;;;;;4987680;28;20148;-71
2022/05/24 03:56:31;;;;;;;19.58;5.53;;;;;;;;;;5004616;28;20037;-69
2022/05/24 03:58:57;;;;;;;16.80;5.60;;;;;;;;;;4990674;28;20122;-69
2022/05/24 04:01:23;;;;;;;14.65;7.35;;;;;;;;;;5005227;28;20041;-69
2022/05/24 04:03:50;;;;;;;19.85;7.80;;;;;;;;;;4991540;28;20056;-69
2022/05/24 04:06:18;;;;;;;20.42;8.30;;;;;;;;;;4987724;28;20147;-71
2022/05/24 04:08:46;;;;;;;16.23;6.85;;;;;;;;;;5005312;28;20087;-72
2022/05/24 04:11:11;;;;;;;17.23;6.40;;;;;;;;;;4975843;28;20076;-70
2022/05/24 04:13:37;;;;;;;15.60;5.10;;;;;;;;;;4975782;28;20037;-71
2022/05/24 04:16:03;;;;;;;19.98;5.97;;;;;;;;;;4976374;28;20223;-71
2022/05/24 04:18:29;;;;;;;14.25;4.63;;;;;;;;;;4974903;28;20802;-72
2022/05/24 04:20:54;;;;;;;15.38;4.53;;;;;;;;;;4976577;28;20034;-70
2022/05/24 04:23:21;;;;;;;20.58;5.20;;;;;;;;;;4970751;28;20326;-71
2022/05/24 04:25:47;;;;;;;17.85;5.18;;;;;;;;;;4974616;28;20795;-68
2022/05/24 04:28:12;;;;;;;18.17;4.75;;;;;;;;;;4976286;28;20045;-70
2022/05/24 04:30:38;;;;;;;15.05;5.03;;;;;;;;;;4975691;28;20752;-70
2022/05/24 04:33:05;;;;;;;15.10;4.32;;;;;;;;;;4977211;28;20071;-71
2022/05/24 04:35:31;;;;;;;17.50;4.60;;;;;;;;;;4973656;28;20867;-71
2022/05/24 04:37:56;;;;;;;24.55;5.05;;;;;;;;;;4975424;28;20882;-72
2022/05/24 04:42:18;;;;;;;15.13;4.72;;;;;;;;;;4974290;28;21805;-73
2022/05/24 04:43:06;;;;;;;15.75;4.88;;;;;;;;;;4971909;28;20095;-70
2022/05/24 04:45:32;;;;;;;16.00;4.97;;;;;;;;;;4976498;28;20042;-71
2022/05/24 04:47:58;;;;;;;22.35;5.28;;;;;;;;;;4976493;28;20041;-71
2022/05/24 04:50:23;;;;;;;20.00;4.38;;;;;;;;;;4986514;28;20038;-72
2022/05/24 04:52:48;;;;;;;19.20;4.35;;;;;;;;;;4973768;28;20823;-68
2022/05/24 04:55:14;;;;;;;18.65;3.83;;;;;;;;;;4976113;28;22578;-72
2022/05/24 04:57:39;;;;;;;15.98;3.63;;;;;;;;;;4979873;28;20196;-70
2022/05/24 05:00:13;;;;;;;16.52;3.75;;;;;;;;;;4971053;28;20053;-70
2022/05/24 05:02:39;;;;;;;20.52;4.22;;;;;;;;;;4964661;28;20030;-71
2022/05/24 05:05:07;;;;;;;19.70;3.97;;;;;;;;;;4969571;28;20912;-68
2022/05/24 05:07:32;;;;;;;20.02;3.60;;;;;;;;;;4971452;28;20041;-71
2022/05/24 05:09:58;;;;;;;22.92;4.20;;;;;;;;;;4971269;28;20153;-70
2022/05/24 05:12:26;;;;;;;17.02;4.03;;;;;;;;;;4977193;28;20251;-71
2022/05/24 05:14:52;;;;;;;16.00;4.22;;;;;;;;;;4972300;28;22564;-68
2022/05/24 05:17:18;;;;;;;16.05;3.90;;;;;;;;;;4973698;28;20147;-72
2022/05/24 05:19:44;;;;;;;14.85;3.50;;;;;;;;;;4973209;28;20046;-68
2022/05/24 05:22:10;;;;;;;14.38;4.15;;;;;;;;;;4973841;28;20117;-73
2022/05/24 05:24:36;;;;;;;11.88;4.03;;;;;;;;;;4953756;28;20038;-71
2022/05/24 05:27:01;;;;;;;14.48;4.07;;;;;;;;;;4966760;28;20042;-73
2022/05/24 05:32:16;;;;;;;14.57;4.40;;;;;;;;;;4975679;28;20045;-71
2022/05/24 05:34:43;;;;;;;18.27;5.45;;;;;;;;;;4972049;28;20049;-71
2022/05/24 05:37:09;;;;;;;16.35;5.63;;;;;;;;;;4970526;28;20069;-70
2022/05/24 05:39:34;;;;;;;13.85;5.57;;;;;;;;;;4971609;28;20076;-71
2022/05/24 05:42:01;;;;;;;22.15;5.50;;;;;;;;;;4972821;28;20143;-71
2022/05/24 05:44:27;;;;;;;15.05;5.20;;;;;;;;;;4972682;28;20122;-71
2022/05/24 05:46:53;;;;;;;23.42;4.70;;;;;;;;;;4971650;28;20029;-70
2022/05/24 05:49:21;;;;;;;17.25;4.40;;;;;;;;;;4983257;28;20092;-70
2022/05/24 05:51:46;;;;;;;15.70;3.30;;;;;;;;;;4992124;28;20565;-72
2022/05/24 05:54:11;;;;;;;12.75;3.47;;;;;;;;;;4989431;28;20536;-72
2022/05/24 05:56:37;;;;;;;14.93;3.00;;;;;;;;;;4992192;28;20884;-71
2022/05/24 05:59:04;;;;;;;12.70;3.28;;;;;;;;;;4989306;28;20033;-71
2022/05/24 06:01:31;;;;;;;13.88;3.38;;;;;;;;;;4990273;28;20048;-70
2022/05/24 06:03:57;;;;;;;17.40;3.67;;;;;;;;;;4989244;28;20457;-69
2022/05/24 06:06:24;;;;;;;14.15;4.00;;;;;;;;;;4988123;28;20136;-70
2022/05/24 06:08:49;;;;;;;13.45;3.60;;;;;;;;;;4979310;28;20029;-74
2022/05/24 06:11:15;;;;;;;19.20;3.90;;;;;;;;;;5000694;28;20032;-72
2022/05/24 06:13:40;;;;;;;11.07;3.20;;;;;;;;;;4991130;28;20132;-73
2022/05/24 06:16:10;;;;;;;14.10;3.30;;;;;;;;;;4993408;28;20040;-72
2022/05/24 06:18:35;;;;;;;17.55;3.03;;;;;;;;;;4982937;28;20053;-71
2022/05/24 06:21:01;;;;;;;8.43;2.28;;;;;;;;;;5006558;28;20037;-72
2022/05/24 06:23:26;;;;;;;9.13;1.88;;;;;;;;;;4997963;28;20478;-71
2022/05/24 06:25:51;;;;;;;22.02;3.33;;;;;;;;;;5002956;28;20184;-67
2022/05/24 06:28:17;;;;;;;25.45;3.35;;;;;;;;;;4992119;28;20127;-71
2022/05/24 06:30:43;;;;;;;21.42;4.75;;;;;;;;;;4992374;28;20716;-70
2022/05/24 06:33:11;;;;;;;30.77;6.57;;;;;;;;;;4988899;28;20052;-70
2022/05/24 06:35:38;;;;;;;14.68;3.70;;;;;;;;;;4987674;28;20390;-71
2022/05/24 06:38:04;;;;;;;18.35;3.45;;;;;;;;;;4968030;28;20026;-71
2022/05/24 06:40:29;;;;;;;17.40;3.00;;;;;;;;;;4971528;28;20061;-71
2022/05/24 06:42:55;;;;;;;9.13;2.65;;;;;;;;;;4973193;28;20148;-72
2022/05/24 06:45:20;;;;;;;18.58;3.47;;;;;;;;;;4968099;28;20112;-73
2022/05/24 06:47:46;;;;;;;13.82;3.50;;;;;;;;;;4975424;28;20030;-71
2022/05/24 06:50:13;;;;;;;16.48;3.78;;;;;;;;;;4950029;28;20064;-72
2022/05/24 06:52:39;;;;;;;16.70;3.70;;;;;;;;;;4971142;28;20133;-72
2022/05/24 06:55:07;;;;;;;18.40;4.20;;;;;;;;;;4971258;28;21141;-73
2022/05/24 06:57:33;;;;;;;20.48;4.03;;;;;;;;;;4967890;28;20042;-72
2022/05/24 07:02:42;;;;;;;13.30;3.20;;;;;;;;;;4971151;28;20034;-74
2022/05/24 07:05:10;;;;;;;9.95;3.05;;;;;;;;;;4939316;28;20440;-73
2022/05/24 07:07:36;;;;;;;11.48;3.45;;;;;;;;;;4973624;28;20045;-75
2022/05/24 07:10:05;;;;;;;9.57;2.83;;;;;;;;;;4971032;28;20391;-72
2022/05/24 07:12:31;;;;;;;9.93;2.60;;;;;;;;;;4968590;28;20034;-75
2022/05/24 07:14:57;;;;;;;12.98;2.90;;;;;;;;;;4959229;28;20108;-73
2022/05/24 07:17:22;;;;;;;9.77;2.70;;;;;;;;;;4967803;28;20156;-77
2022/05/24 07:19:47;;;;;;;12.35;3.35;;;;;;;;;;4970883;28;20029;-79
2022/05/24 07:22:13;;;;;;;11.35;3.35;;;;;;;;;;4971109;28;20430;-76
2022/05/24 07:24:39;;;;;;;6.78;2.60;;;;;;;;;;4961495;28;20607;-73
2022/05/24 07:27:08;;;;;;;8.48;2.70;;;;;;;;;;4970430;28;20115;-73
2022/05/24 07:29:36;;;;;;;10.13;2.60;;;;;;;;;;4964141;28;20029;-73
2022/05/24 07:32:01;;;;;;;7.45;2.85;;;;;;;;;;4974889;28;20037;-75
2022/05/24 07:34:29;;;;;;;14.13;3.10;;;;;;;;;;4967917;28;20176;-70
2022/05/24 07:36:54;;;;;;;10.18;3.10;;;;;;;;;;4968081;28;20225;-69
2022/05/24 07:39:20;;;;;;;11.23;3.40;;;;;;;;;;4971955;28;20048;-72
2022/05/24 07:47:13;;;;;;;11.60;3.67;;;;;;;;;;4997165;28;20036;-73
2022/05/24 07:49:38;;;;;;;10.13;2.90;;;;;;;;;;4980957;28;20042;-73
2022/05/24 07:52:04;;;;;;;14.80;2.97;;;;;;;;;;4984663;28;20047;-74
2022/05/24 07:54:33;;;;;;;11.15;2.90;;;;;;;;;;4978397;28;20045;-74
2022/05/24 07:56:59;;;;;;;8.88;2.42;;;;;;;;;;5005560;28;20037;-74
2022/05/24 07:59:24;;;;;;;5.43;1.88;;;;;;;;;;4988625;28;20839;-72
2022/05/24 08:01:50;;;;;;;13.73;2.25;;;;;;;;;;4988782;28;20069;-73
2022/05/24 08:04:15;;;;;;;8.63;2.00;;;;;;;;;;4997851;28;21147;-73
2022/05/24 08:06:43;;;;;;;9.85;1.80;;;;;;;;;;4972060;28;20034;-75
2022/05/24 08:09:09;;;;;;;10.45;2.38;;;;;;;;;;4968065;28;20772;-70
2022/05/24 08:11:34;;;;;;;8.45;1.90;;;;;;;;;;4967845;28;20030;-70
2022/05/24 08:14:02;;;;;;;7.97;2.30;;;;;;;;;;4965544;28;20928;-70
2022/05/24 08:16:28;;;;;;;6.97;2.15;;;;;;;;;;4967271;28;20044;-72
2022/05/24 08:18:53;;;;;;;6.25;2.28;;;;;;;;;;4969903;28;20042;-68
2022/05/24 08:21:19;;;;;;;10.13;2.58;;;;;;;;;;4966079;28;20045;-73
2022/05/24 08:23:44;;;;;;;9.50;3.15;;;;;;;;;;4984719;28;20823;-70
2022/05/24 08:26:10;;;;;;;11.05;3.58;;;;;;;;;;4968576;28;20181;-72
2022/05/24 08:28:35;;;;;;;10.13;3.55;;;;;;;;;;4975027;28;20037;-70
2022/05/24 08:31:00;;;;;;;9.05;3.58;;;;;;;;;;4957093;28;20138;-70
2022/05/24 08:33:28;;;;;;;10.98;4.28;;;;;;;;;;4967198;28;22573;-72
2022/05/24 08:35:54;;;;;;;14.75;4.82;;;;;;;;;;4967257;28;20034;-73
2022/05/24 08:38:21;;;;;;;13.95;5.60;;;;;;;;;;4968584;28;20168;-72
2022/05/24 08:40:47;;;;;;;18.77;5.88;;;;;;;;;;4967132;28;20033;-69
2022/05/24 08:43:22;;;;;;;15.68;5.85;;;;;;;;;;4970095;28;20809;-70
2022/05/24 08:48:51;;;;;;;15.35;6.47;;;;;;;;;;4970306;28;20638;-73
2022/05/24 08:51:36;;;;;;;14.90;6.80;;;;;;;;;;4968480;28;20034;-71
2022/05/24 08:54:21;;;;;;;19.00;6.13;;;;;;;;;;4965271;28;21244;-71
2022/05/24 08:56:50;;;;;;;9.48;1.90;;;;;;;;;;4964167;28;20038;-73
2022/05/24 08:59:17;;;;;;;9.13;1.10;;;;;;;;;;4988421;28;20040;-74
2022/05/24 09:01:44;;;;;;;8.02;1.25;;;;;;;;;;4971822;28;20037;-73
2022/05/24 09:04:10;;;;;;;4.50;1.02;;;;;;;;;;4970314;28;20280;-73
2022/05/24 09:06:43;;;;;;;4.80;1.48;;;;;;;;;;5007633;28;20038;-74
2022/05/24 09:09:09;;;;;;;5.93;1.15;;;;;;;;;;4986048;28;20101;-74
2022/05/24 09:11:56;;;;;;;5.57;1.40;;;;;;;;;;4988875;28;20037;-73
2022/05/24 09:14:24;;;;;;;5.47;1.58;;;;;;;;;;4979060;28;20128;-72
2022/05/24 09:17:00;;;;;;;8.35;1.60;;;;;;;;;;4991720;28;21805;-73
2022/05/24 09:19:27;;;;;;;6.97;1.80;;;;;;;;;;4991202;28;20041;-74
2022/05/24 09:21:56;;;;;;;11.30;2.13;;;;;;;;;;4992696;28;20041;-73
2022/05/24 09:24:24;;;;;;;10.68;2.10;;;;;;;;;;4965059;28;20041;-72
2022/05/24 09:27:08;;;;;;;9.75;1.67;;;;;;;;;;4969951;28;20675;-72
2022/05/24 09:29:52;;;;;;;9.35;1.58;;;;;;;;;;4981920;28;20045;-73
2022/05/24 09:32:18;;;;;;;10.75;2.08;;;;;;;;;;4972339;28;20745;-74
2022/05/24 09:34:43;;;;;;;8.45;1.77;;;;;;;;;;4973193;28;20064;-75
2022/05/24 09:37:25;;;;;;;8.18;1.60;;;;;;;;;;4972965;28;20060;-74
2022/05/24 09:40:05;;;;;;;9.63;1.98;;;;;;;;;;4969531;28;20041;-72
2022/05/24 09:42:33;;;;;;;10.18;2.30;;;;;;;;;;4974929;28;20045;-72
2022/05/24 09:44:58;;;;;;;8.45;2.90;;;;;;;;;;4971523;28;20030;-70
2022/05/24 09:47:30;;;;;;;14.07;4.30;;;;;;;;;;4971153;28;20040;-73
2022/05/24 09:50:16;;;;;;;13.43;4.10;;;;;;;;;;4968815;28;20744;-71
2022/05/24 09:52:42;;;;;;;11.18;3.83;;;;;;;;;;4971225;28;20088;-71
2022/05/24 09:55:07;;;;;;;15.13;4.32;;;;;;;;;;4998788;28;20051;-70
2022/05/24 09:57:33;;;;;;;11.48;4.88;;;;;;;;;;4978862;28;20157;-71
2022/05/24 10:00:04;;;;;;;15.18;4.47;;;;;;;;;;4969721;28;20099;-73
2022/05/24 10:02:33;;;;;;;12.10;3.22;;;;;;;;;;4984062;28;20720;-73
2022/05/24 10:04:58;;;;;;;9.50;2.50;;;;;;;;;;4967904;28;20092;-69
2022/05/24 10:07:27;;;;;;;10.10;2.08;;;;;;;;;;4971184;28;20034;-73
2022/05/24 10:10:07;;;;;;;5.55;2.20;;;;;;;;;;4972518;28;20144;-72
2022/05/24 10:12:35;;;;;;;9.68;3.33;;;;;;;;;;4969770;28;20220;-73
2022/05/24 10:15:06;;;;;;;11.13;4.05;;;;;;;;;;4969060;28;20090;-71
2022/05/24 10:17:40;;;;;;;10.32;4.00;;;;;;;;;;4971498;28;20037;-72
2022/05/24 10:20:23;;;;;;;10.95;4.50;;;;;;;;;;4976907;28;20038;-73
2022/05/24 10:23:00;;;;;;;10.00;3.85;;;;;;;;;;4972906;28;20037;-72
2022/05/24 10:25:28;;;;;;;11.23;3.80;;;;;;;;;;4968815;28;20152;-73
2022/05/24 10:28:00;;;;;;;13.00;4.53;;;;;;;;;;4967798;28;20041;-73
2022/05/24 10:30:31;;;;;;;12.77;5.25;;;;;;;;;;4968543;28;20049;-71
2022/05/24 10:38:55;;;;;;;14.63;5.43;;;;;;;;;;4966481;28;20118;-73
2022/05/24 10:41:25;;;;;;;10.82;4.60;;;;;;;;;;4968709;28;20562;-70
2022/05/24 10:43:56;;;;;;;13.85;4.40;;;;;;;;;;4966407;28;20215;-72
2022/05/24 10:46:26;;;;;;;10.15;4.45;;;;;;;;;;4945284;28;20050;-73
2022/05/24 10:49:01;;;;;;;15.32;4.80;;;;;;;;;;4967167;28;20040;-70
2022/05/24 10:51:33;;;;;;;11.05;4.85;;;;;;;;;;4966664;28;20560;-69
2022/05/24 10:54:01;;;;;;;15.27;4.60;;;;;;;;;;4969319;28;20142;-72
2022/05/24 10:56:45;;;;;;;11.18;3.22;;;;;;;;;;4963795;28;20034;-73
2022/05/24 10:59:14;;;;;;;13.55;3.88;;;;;;;;;;4965552;28;20033;-71
2022/05/24 11:01:50;;;;;;;13.20;4.75;;;;;;;;;;4967713;28;20306;-71
2022/05/24 11:04:20;;;;;;;11.80;4.03;;;;;;;;;;4984881;28;20750;-71
2022/05/24 11:06:58;;;;;;;15.93;4.57;;;;;;;;;;4969161;28;20563;-71
2022/05/24 11:09:28;;;;;;;13.07;4.22;;;;;;;;;;4969195;28;20068;-71
2022/05/24 11:11:59;;;;;;;16.65;3.50;;;;;;;;;;4963193;28;20413;-67
2022/05/24 11:14:27;;;;;;;11.83;3.57;;;;;;;;;;4963770;28;20219;-71
2022/05/24 11:16:53;;;;;;;10.98;3.33;;;;;;;;;;4965231;28;20662;-71
2022/05/24 11:19:23;;;;;;;15.45;3.60;;;;;;;;;;4963771;28;20512;-71
2022/05/24 11:22:08;;;;;;;16.98;3.80;;;;;;;;;;4986505;28;20116;-71
2022/05/24 11:24:40;;;;;;;19.02;3.88;;;;;;;;;;4967473;28;20046;-70
2022/05/24 11:27:09;;;;;;;13.55;3.75;;;;;;;;;;4969875;28;20066;-69
2022/05/24 11:29:43;;;;;;;13.60;4.00;;;;;;;;;;4966319;28;20484;-71
2022/05/24 11:32:11;;;;;;;18.40;3.17;;;;;;;;;;4964553;28;20284;-71
2022/05/24 11:34:55;;;;;;;13.88;3.17;;;;;;;;;;4970335;28;20045;-69
2022/05/24 11:37:28;;;;;;;13.85;3.33;;;;;;;;;;4965323;28;20228;-70
2022/05/24 11:39:54;;;;;;;18.45;3.40;;;;;;;;;;4963290;28;20877;-66
2022/05/24 11:42:23;;;;;;;10.60;3.35;;;;;;;;;;4966188;28;20202;-71
2022/05/24 11:44:49;;;;;;;22.63;3.58;;;;;;;;;;4964489;28;20041;-70
2022/05/24 11:47:33;;;;;;;13.75;2.80;;;;;;;;;;4963682;28;20137;-70
2022/05/24 11:49:59;;;;;;;17.42;3.03;;;;;;;;;;4962983;28;20546;-67
2022/05/24 11:52:45;;;;;;;18.10;3.10;;;;;;;;;;4963487;28;20278;-68
2022/05/24 11:55:30;;;;;;;15.55;2.90;;;;;;;;;;4966739;28;20053;-68
2022/05/24 11:58:04;;;;;;;11.32;2.70;;;;;;;;;;4962254;28;20100;-71
2022/05/24 12:00:33;;;;;;;10.52;2.45;;;;;;;;;;4967624;28;20575;-71
2022/05/24 12:08:35;;;;;;;12.07;2.58;;;;;;;;;;4968185;28;20085;-69
2022/05/24 12:11:04;;;;;;;12.70;2.65;;;;;;;;;;4965343;28;20671;-71
2022/05/24 12:13:45;;;;;;;13.30;2.85;;;;;;;;;;4963703;28;20459;-71
2022/05/24 12:16:30;;;;;;;11.07;2.55;;;;;;;;;;4965204;28;20120;-70
2022/05/24 12:18:57;;;;;;;11.80;2.20;;;;;;;;;;4963997;28;20164;-69
2022/05/24 12:21:42;;;;;;;12.85;2.40;;;;;;;;;;4966497;28;20661;-70
2022/05/24 12:24:28;;;;;;;13.95;2.75;;;;;;;;;;4966631;28;20601;-70
2022/05/24 12:27:12;;;;;;;14.25;2.40;;;;;;;;;;4965592;28;20414;-70
2022/05/24 12:29:42;;;;;;;14.75;2.70;;;;;;;;;;4965463;28;20158;-76
2022/05/24 12:32:07;;;;;;;15.15;2.75;;;;;;;;;;4968898;28;20026;-77
2022/05/24 12:34:33;;;;;;;12.93;2.50;;;;;;;;;;4970071;28;20046;-71
2022/05/24 12:37:00;;;;;;;15.10;2.88;;;;;;;;;;4968148;28;22409;-74
2022/05/24 12:39:26;;;;;;;13.77;2.35;;;;;;;;;;4975460;28;20057;-73
2022/05/24 12:41:55;;;;;;;11.27;2.05;;;;;;;;;;4978572;28;20534;-73
2022/05/24 12:44:22;;;;;;;13.13;2.47;;;;;;;;;;4968159;28;20666;-73
2022/05/24 12:46:55;;;;;;;14.52;2.67;;;;;;;;;;4968431;28;20108;-72
2022/05/24 12:49:25;;;;;;;8.25;1.98;;;;;;;;;;4977037;28;20036;-74
2022/05/24 12:52:14;;;;;;;11.82;2.10;;;;;;;;;;4956284;28;20068;-75
2022/05/24 12:54:43;;;;;;;11.43;2.03;;;;;;;;;;4963702;28;20814;-73
2022/05/24 12:57:18;;;;;;;15.85;2.17;;;;;;;;;;4986964;28;20037;-70
2022/05/24 12:59:50;;;;;;;8.55;2.10;;;;;;;;;;4992022;28;20037;-73
2022/05/24 13:02:24;;;;;;;16.75;2.20;;;;;;;;;;4985727;28;20029;-72
2022/05/24 13:04:50;;;;;;;16.88;2.13;;;;;;;;;;4990717;28;21037;-75
2022/05/24 13:07:35;;;;;;;11.07;2.20;;;;;;;;;;4987345;28;20029;-74
2022/05/24 13:10:02;;;;;;;10.75;1.77;;;;;;;;;;4983323;28;20045;-71
2022/05/24 13:12:28;;;;;;;12.60;2.25;;;;;;;;;;4992130;28;20480;-75
2022/05/24 13:14:56;;;;;;;12.00;1.88;;;;;;;;;;5002682;28;20305;-73
2022/05/24 13:17:22;;;;;;;11.15;1.67;;;;;;;;;;5007017;28;20828;-72
2022/05/24 13:19:52;;;;;;;15.50;2.10;;;;;;;;;;4992559;28;20048;-73
2022/05/24 13:22:18;;;;;;;7.00;1.42;;;;;;;;;;4970023;28;20120;-72
2022/05/24 13:24:49;;;;;;;18.25;2.08;;;;;;;;;;4956790;28;20492;-71
2022/05/24 13:27:14;;;;;;;9.10;1.88;;;;;;;;;;4976127;28;20033;-73
2022/05/24 13:35:24;;;;;;;9.82;1.80;;;;;;;;;;4958945;28;20046;-73
2022/05/24 13:37:51;;;;;;;11.38;2.20;;;;;;;;;;4966812;28;20030;-72
2022/05/24 13:40:33;;;;;;;14.30;2.60;;;;;;;;;;4969573;28;20052;-71
2022/05/24 13:42:58;;;;;;;15.55;2.63;;;;;;;;;;4983123;28;20057;-74
2022/05/24 13:45:26;;;;;;;11.38;2.05;;;;;;;;;;4972075;28;20057;-73
2022/05/24 13:47:56;;;;;;;14.73;2.45;;;;;;;;;;4974657;28;20337;-70
2022/05/24 13:50:27;;;;;;;12.60;2.10;;;;;;;;;;4970505;28;20547;-71
2022/05/24 13:53:03;;;;;;;11.43;1.88;;;;;;;;;;4971273;28;20033;-74
2022/05/24 13:55:33;;;;;;;9.85;1.85;;;;;;;;;;4968797;28;21933;-73
2022/05/24 13:58:08;;;;;;;13.13;1.80;;;;;;;;;;4969960;28;20171;-74
2022/05/24 14:00:42;;;;;;;15.90;2.22;;;;;;;;;;4968337;28;20038;-73
2022/05/24 14:03:17;;;;;;;12.38;2.25;;;;;;;;;;4974346;28;20033;-75
2022/05/24 14:05:44;;;;;;;10.95;2.00;;;;;;;;;;4975066;28;20826;-74
2022/05/24 14:08:10;;;;;;;9.00;1.80;;;;;;;;;;4971461;28;20142;-72
2022/05/24 14:10:37;;;;;;;13.32;2.35;;;;;;;;;;4981082;28;20082;-73
2022/05/24 14:13:07;;;;;;;15.15;2.13;;;;;;;;;;4973174;28;20882;-73
2022/05/24 14:15:33;;;;;;;15.73;2.20;;;;;;;;;;4971751;28;20103;-76
2022/05/24 14:17:58;;;;;;;17.02;2.10;;;;;;;;;;4970291;28;20049;-76
2022/05/24 14:20:24;;;;;;;11.95;2.10;;;;;;;;;;4972529;28;20038;-74
2022/05/24 14:22:49;;;;;;;18.13;2.17;;;;;;;;;;4971878;28;20041;-73
2022/05/24 14:25:15;;;;;;;14.95;2.10;;;;;;;;;;4972910;28;20030;-74
2022/05/24 14:27:41;;;;;;;11.02;1.77;;;;;;;;;;4968010;28;20038;-75
2022/05/24 14:30:07;;;;;;;10.05;1.70;;;;;;;;;;4970972;28;20167;-75
2022/05/24 14:32:33;;;;;;;12.77;1.77;;;;;;;;;;4972961;28;20041;-75
2022/05/24 14:34:59;;;;;;;10.75;2.33;;;;;;;;;;4973249;28;20085;-74
2022/05/24 14:37:24;;;;;;;9.80;1.98;;;;;;;;;;4974185;28;20701;-72
2022/05/24 14:39:50;;;;;;;8.30;1.92;;;;;;;;;;4970018;28;20041;-72
2022/05/24 14:42:18;;;;;;;6.70;1.88;;;;;;;;;;4972455;28;20034;-76
2022/05/24 14:44:43;;;;;;;20.17;2.20;;;;;;;;;;4968116;28;20117;-73
2022/05/24 14:47:13;;;;;;;14.32;1.80;;;;;;;;;;4974081;28;20065;-75
2022/05/24 14:49:41;;;;;;;11.68;1.60;;;;;;;;;;5002925;28;22450;-73
2022/05/24 14:52:08;;;;;;;10.10;2.33;;;;;;;;;;4993745;28;20118;-73
2022/05/24 14:54:40;;;;;;;8.10;1.70;;;;;;;;;;4992955;28;20478;-76
2022/05/24 14:57:05;;;;;;;10.45;1.65;;;;;;;;;;4992799;28;20041;-74
2022/05/24 14:59:31;;;;;;;10.80;1.92;;;;;;;;;;4991331;28;20043;-74
2022/05/24 15:01:56;;;;;;;10.38;1.92;;;;;;;;;;4992130;28;20129;-73
2022/05/24 15:04:22;;;;;;;7.97;1.30;;;;;;;;;;5000633;28;20168;-75
2022/05/24 15:06:51;;;;;;;9.48;1.75;;;;;;;;;;4979312;28;20883;-73
2022/05/24 15:17:34;;;;;;;11.82;1.85;;;;;;;;;;4973621;28;20723;-72
2022/05/24 15:20:03;;;;;;;12.57;2.03;;;;;;;;;;4970036;28;20068;-73
2022/05/24 15:22:28;;;;;;;13.00;1.77;;;;;;;;;;4968310;28;20191;-75
2022/05/24 15:24:54;;;;;;;10.55;1.80;;;;;;;;;;4966388;28;20029;-74
2022/05/24 15:27:22;;;;;;;7.57;1.70;;;;;;;;;;4946946;28;20030;-73
2022/05/24 15:29:50;;;;;;;7.07;1.70;;;;;;;;;;4965412;28;20033;-72
2022/05/24 15:32:15;;;;;;;12.05;1.83;;;;;;;;;;4972219;28;20068;-74